sensor_id;sensor_type;location;lat;lon;timestamp;P1;durP1;ratioP1;P2;durP2;ratioP2
63350;SDS011;64988;51.058;17.040;2023-06-22T00:02:28;19.58;;;13.50;;
63350;SDS011;64988;51.058;17.040;2023-06-22T00:07:55;22.52;;;14.35;;
63350;SDS011;64988;51.058;17.040;2023-06-22T00:13:22;24.13;;;13.52;;
63350;SDS011;64988;51.058;17.040;2023-06-22T00:18:49;17.17;;;13.13;;
63350;SDS011;64988;51.058;17.040;2023-06-22T00:24:16;20.05;;;13.43;;
63350;SDS011;64988;51.058;17.040;2023-06-22T00:29:43;18.75;;;14.18;;
63350;SDS011;64988;51.058;17.040;2023-06-22T00:35:11;22.27;;;14.23;;
63350;SDS011;64988;51.058;17.040;2023-06-22T00:40:39;22.92;;;15.60;;
63350;SDS011;64988;51.058;17.040;2023-06-22T00:46:07;27.02;;;14.80;;
63350;SDS011;64988;51.058;17.040;2023-06-22T00:51:36;22.85;;;14.63;;
63350;SDS011;64988;51.058;17.040;2023-06-22T00:57:06;19.92;;;14.82;;
63350;SDS011;64988;51.058;17.040;2023-06-22T01:13:59;23.35;;;16.30;;
63350;SDS011;64988;51.058;17.040;2023-06-22T01:19:45;22.33;;;15.65;;
63350;SDS011;64988;51.058;17.040;2023-06-22T01:30:48;24.48;;;17.23;;
63350;SDS011;64988;51.058;17.040;2023-06-22T01:36:30;24.33;;;16.85;;
63350;SDS011;64988;51.058;17.040;2023-06-22T01:41:59;24.20;;;16.63;;
63350;SDS011;64988;51.058;17.040;2023-06-22T01:47:28;25.55;;;16.73;;
63350;SDS011;64988;51.058;17.040;2023-06-22T01:52:55;23.45;;;16.20;;
63350;SDS011;64988;51.058;17.040;2023-06-22T01:58:26;27.58;;;16.48;;
63350;SDS011;64988;51.058;17.040;2023-06-22T02:10:05;25.00;;;16.50;;
63350;SDS011;64988;51.058;17.040;2023-06-22T02:15:34;29.13;;;16.35;;
63350;SDS011;64988;51.058;17.040;2023-06-22T02:21:03;26.33;;;17.25;;
63350;SDS011;64988;51.058;17.040;2023-06-22T02:26:30;24.63;;;14.98;;
63350;SDS011;64988;51.058;17.040;2023-06-22T02:32:00;28.50;;;16.50;;
63350;SDS011;64988;51.058;17.040;2023-06-22T02:37:27;25.80;;;17.45;;
63350;SDS011;64988;51.058;17.040;2023-06-22T02:42:57;27.13;;;17.33;;
63350;SDS011;64988;51.058;17.040;2023-06-22T02:48:29;31.17;;;19.95;;
63350;SDS011;64988;51.058;17.040;2023-06-22T02:53:56;29.17;;;18.63;;
63350;SDS011;64988;51.058;17.040;2023-06-22T02:59:27;32.63;;;18.88;;
63350;SDS011;64988;51.058;17.040;2023-06-22T03:05:00;29.70;;;18.65;;
63350;SDS011;64988;51.058;17.040;2023-06-22T03:10:28;27.55;;;18.10;;
63350;SDS011;64988;51.058;17.040;2023-06-22T03:15:56;30.65;;;16.95;;
63350;SDS011;64988;51.058;17.040;2023-06-22T03:21:25;24.70;;;16.08;;
63350;SDS011;64988;51.058;17.040;2023-06-22T03:26:55;21.67;;;15.70;;
63350;SDS011;64988;51.058;17.040;2023-06-22T03:32:22;21.02;;;14.95;;
63350;SDS011;64988;51.058;17.040;2023-06-22T03:37:50;23.23;;;15.15;;
63350;SDS011;64988;51.058;17.040;2023-06-22T03:43:17;23.75;;;14.80;;
63350;SDS011;64988;51.058;17.040;2023-06-22T03:48:44;20.60;;;14.65;;
63350;SDS011;64988;51.058;17.040;2023-06-22T03:54:11;21.40;;;14.50;;
63350;SDS011;64988;51.058;17.040;2023-06-22T03:59:38;18.33;;;14.25;;
63350;SDS011;64988;51.058;17.040;2023-06-22T04:05:06;20.52;;;13.45;;
63350;SDS011;64988;51.058;17.040;2023-06-22T04:10:36;16.88;;;13.07;;
63350;SDS011;64988;51.058;17.040;2023-06-22T04:16:03;20.23;;;14.27;;
63350;SDS011;64988;51.058;17.040;2023-06-22T04:21:31;20.15;;;14.00;;
63350;SDS011;64988;51.058;17.040;2023-06-22T04:26:59;17.25;;;13.82;;
63350;SDS011;64988;51.058;17.040;2023-06-22T04:32:29;17.55;;;14.40;;
63350;SDS011;64988;51.058;17.040;2023-06-22T04:37:58;21.92;;;14.63;;
63350;SDS011;64988;51.058;17.040;2023-06-22T04:43:26;19.65;;;13.82;;
63350;SDS011;64988;51.058;17.040;2023-06-22T04:54:24;19.27;;;15.43;;
63350;SDS011;64988;51.058;17.040;2023-06-22T04:59:52;21.45;;;16.27;;
63350;SDS011;64988;51.058;17.040;2023-06-22T05:05:19;21.02;;;16.42;;
63350;SDS011;64988;51.058;17.040;2023-06-22T05:10:46;21.70;;;17.17;;
63350;SDS011;64988;51.058;17.040;2023-06-22T05:16:30;21.27;;;16.48;;
63350;SDS011;64988;51.058;17.040;2023-06-22T05:21:57;19.27;;;16.38;;
63350;SDS011;64988;51.058;17.040;2023-06-22T05:27:24;23.63;;;17.73;;
63350;SDS011;64988;51.058;17.040;2023-06-22T05:32:52;17.60;;;14.27;;
63350;SDS011;64988;51.058;17.040;2023-06-22T05:38:20;15.70;;;14.10;;
63350;SDS011;64988;51.058;17.040;2023-06-22T05:43:48;13.55;;;11.73;;
63350;SDS011;64988;51.058;17.040;2023-06-22T05:49:18;13.75;;;11.65;;
63350;SDS011;64988;51.058;17.040;2023-06-22T05:54:46;14.68;;;11.32;;
63350;SDS011;64988;51.058;17.040;2023-06-22T06:00:14;17.13;;;11.50;;
63350;SDS011;64988;51.058;17.040;2023-06-22T06:05:42;14.50;;;10.45;;
63350;SDS011;64988;51.058;17.040;2023-06-22T06:11:11;13.32;;;10.85;;
63350;SDS011;64988;51.058;17.040;2023-06-22T06:16:39;16.65;;;12.15;;
63350;SDS011;64988;51.058;17.040;2023-06-22T06:22:07;10.85;;;9.32;;
63350;SDS011;64988;51.058;17.040;2023-06-22T06:27:35;12.52;;;9.93;;
63350;SDS011;64988;51.058;17.040;2023-06-22T06:33:06;13.45;;;10.40;;
63350;SDS011;64988;51.058;17.040;2023-06-22T06:38:35;12.82;;;10.18;;
63350;SDS011;64988;51.058;17.040;2023-06-22T06:44:03;13.63;;;9.60;;
63350;SDS011;64988;51.058;17.040;2023-06-22T06:49:30;11.00;;;9.85;;
63350;SDS011;64988;51.058;17.040;2023-06-22T06:54:57;11.07;;;8.82;;
63350;SDS011;64988;51.058;17.040;2023-06-22T07:00:24;10.70;;;9.60;;
63350;SDS011;64988;51.058;17.040;2023-06-22T07:05:54;9.55;;;8.55;;
63350;SDS011;64988;51.058;17.040;2023-06-22T07:11:23;9.48;;;8.55;;
63350;SDS011;64988;51.058;17.040;2023-06-22T07:16:50;10.70;;;8.90;;
63350;SDS011;64988;51.058;17.040;2023-06-22T07:22:17;12.32;;;9.27;;
63350;SDS011;64988;51.058;17.040;2023-06-22T07:28:04;10.35;;;8.82;;
63350;SDS011;64988;51.058;17.040;2023-06-22T07:33:32;19.67;;;10.00;;
63350;SDS011;64988;51.058;17.040;2023-06-22T07:39:02;14.50;;;10.40;;
63350;SDS011;64988;51.058;17.040;2023-06-22T07:44:33;11.85;;;10.70;;
63350;SDS011;64988;51.058;17.040;2023-06-22T07:50:01;11.82;;;10.63;;
63350;SDS011;64988;51.058;17.040;2023-06-22T07:55:30;12.07;;;10.25;;
63350;SDS011;64988;51.058;17.040;2023-06-22T08:00:57;12.48;;;10.25;;
63350;SDS011;64988;51.058;17.040;2023-06-22T08:06:25;12.30;;;10.82;;
63350;SDS011;64988;51.058;17.040;2023-06-22T08:11:53;11.45;;;10.43;;
63350;SDS011;64988;51.058;17.040;2023-06-22T08:17:25;10.45;;;9.55;;
63350;SDS011;64988;51.058;17.040;2023-06-22T08:22:54;17.67;;;9.63;;
63350;SDS011;64988;51.058;17.040;2023-06-22T08:28:22;9.07;;;8.27;;
63350;SDS011;64988;51.058;17.040;2023-06-22T08:33:52;11.38;;;10.13;;
63350;SDS011;64988;51.058;17.040;2023-06-22T08:39:20;10.37;;;9.37;;
63350;SDS011;64988;51.058;17.040;2023-06-22T08:44:48;10.07;;;9.07;;
63350;SDS011;64988;51.058;17.040;2023-06-22T08:50:17;12.57;;;10.38;;
63350;SDS011;64988;51.058;17.040;2023-06-22T08:55:45;11.10;;;10.00;;
63350;SDS011;64988;51.058;17.040;2023-06-22T09:01:12;10.07;;;9.07;;
63350;SDS011;64988;51.058;17.040;2023-06-22T09:06:41;11.57;;;10.47;;
63350;SDS011;64988;51.058;17.040;2023-06-22T09:12:13;12.60;;;10.93;;
63350;SDS011;64988;51.058;17.040;2023-06-22T09:17:40;19.27;;;9.60;;
63350;SDS011;64988;51.058;17.040;2023-06-22T09:23:08;12.35;;;10.10;;
63350;SDS011;64988;51.058;17.040;2023-06-22T09:28:35;10.82;;;9.65;;
63350;SDS011;64988;51.058;17.040;2023-06-22T09:34:02;13.13;;;10.27;;
63350;SDS011;64988;51.058;17.040;2023-06-22T09:39:32;11.50;;;9.18;;
63350;SDS011;64988;51.058;17.040;2023-06-22T09:45:00;12.23;;;9.07;;
63350;SDS011;64988;51.058;17.040;2023-06-22T09:50:28;11.82;;;10.45;;
63350;SDS011;64988;51.058;17.040;2023-06-22T09:55:56;10.90;;;9.60;;
63350;SDS011;64988;51.058;17.040;2023-06-22T10:01:24;11.43;;;9.50;;
63350;SDS011;64988;51.058;17.040;2023-06-22T10:06:53;10.05;;;8.98;;
63350;SDS011;64988;51.058;17.040;2023-06-22T10:12:21;9.55;;;8.25;;
63350;SDS011;64988;51.058;17.040;2023-06-22T10:17:49;14.07;;;9.82;;
63350;SDS011;64988;51.058;17.040;2023-06-22T10:23:18;12.77;;;9.77;;
63350;SDS011;64988;51.058;17.040;2023-06-22T10:28:48;9.35;;;8.38;;
63350;SDS011;64988;51.058;17.040;2023-06-22T10:34:23;10.90;;;9.25;;
63350;SDS011;64988;51.058;17.040;2023-06-22T10:39:50;12.98;;;10.00;;
63350;SDS011;64988;51.058;17.040;2023-06-22T10:45:17;13.65;;;8.30;;
63350;SDS011;64988;51.058;17.040;2023-06-22T10:50:46;10.05;;;8.90;;
63350;SDS011;64988;51.058;17.040;2023-06-22T10:56:14;12.13;;;9.80;;
63350;SDS011;64988;51.058;17.040;2023-06-22T11:01:41;9.73;;;8.25;;
63350;SDS011;64988;51.058;17.040;2023-06-22T11:07:08;12.18;;;8.98;;
63350;SDS011;64988;51.058;17.040;2023-06-22T11:12:37;8.90;;;7.85;;
63350;SDS011;64988;51.058;17.040;2023-06-22T11:18:04;10.98;;;9.27;;
63350;SDS011;64988;51.058;17.040;2023-06-22T11:23:34;10.77;;;8.55;;
63350;SDS011;64988;51.058;17.040;2023-06-22T11:29:02;9.52;;;7.82;;
63350;SDS011;64988;51.058;17.040;2023-06-22T11:34:35;9.55;;;8.13;;
63350;SDS011;64988;51.058;17.040;2023-06-22T11:40:02;10.15;;;8.80;;
63350;SDS011;64988;51.058;17.040;2023-06-22T11:45:33;10.73;;;8.23;;
63350;SDS011;64988;51.058;17.040;2023-06-22T11:51:01;9.85;;;7.43;;
63350;SDS011;64988;51.058;17.040;2023-06-22T11:56:29;11.50;;;9.20;;
63350;SDS011;64988;51.058;17.040;2023-06-22T12:01:57;9.07;;;7.80;;
63350;SDS011;64988;51.058;17.040;2023-06-22T12:07:25;7.32;;;6.63;;
63350;SDS011;64988;51.058;17.040;2023-06-22T12:12:53;7.93;;;6.78;;
63350;SDS011;64988;51.058;17.040;2023-06-22T12:18:21;9.20;;;7.95;;
63350;SDS011;64988;51.058;17.040;2023-06-22T12:23:49;9.45;;;6.93;;
63350;SDS011;64988;51.058;17.040;2023-06-22T12:29:16;8.02;;;6.93;;
63350;SDS011;64988;51.058;17.040;2023-06-22T12:34:44;10.27;;;6.95;;
63350;SDS011;64988;51.058;17.040;2023-06-22T12:40:13;7.75;;;6.28;;
63350;SDS011;64988;51.058;17.040;2023-06-22T12:45:40;7.78;;;6.97;;
63350;SDS011;64988;51.058;17.040;2023-06-22T12:51:08;8.77;;;6.32;;
63350;SDS011;64988;51.058;17.040;2023-06-22T12:56:37;8.55;;;6.13;;
63350;SDS011;64988;51.058;17.040;2023-06-22T13:02:04;7.88;;;5.18;;
63350;SDS011;64988;51.058;17.040;2023-06-22T13:07:33;8.73;;;6.40;;
63350;SDS011;64988;51.058;17.040;2023-06-22T13:13:00;7.72;;;6.10;;
63350;SDS011;64988;51.058;17.040;2023-06-22T13:18:27;6.93;;;5.85;;
63350;SDS011;64988;51.058;17.040;2023-06-22T13:23:55;9.57;;;6.28;;
63350;SDS011;64988;51.058;17.040;2023-06-22T13:29:22;11.50;;;6.60;;
63350;SDS011;64988;51.058;17.040;2023-06-22T13:34:52;9.02;;;7.13;;
63350;SDS011;64988;51.058;17.040;2023-06-22T13:40:22;8.67;;;6.93;;
63350;SDS011;64988;51.058;17.040;2023-06-22T13:45:50;9.43;;;7.15;;
63350;SDS011;64988;51.058;17.040;2023-06-22T13:51:18;7.35;;;6.50;;
63350;SDS011;64988;51.058;17.040;2023-06-22T13:56:46;9.15;;;7.68;;
63350;SDS011;64988;51.058;17.040;2023-06-22T14:02:13;9.68;;;7.68;;
63350;SDS011;64988;51.058;17.040;2023-06-22T14:07:41;11.00;;;7.60;;
63350;SDS011;64988;51.058;17.040;2023-06-22T14:13:08;9.23;;;7.38;;
63350;SDS011;64988;51.058;17.040;2023-06-22T14:18:35;8.52;;;7.25;;
63350;SDS011;64988;51.058;17.040;2023-06-22T14:24:03;10.00;;;7.03;;
63350;SDS011;64988;51.058;17.040;2023-06-22T14:29:31;9.07;;;7.88;;
63350;SDS011;64988;51.058;17.040;2023-06-22T14:34:59;11.15;;;7.07;;
63350;SDS011;64988;51.058;17.040;2023-06-22T14:40:30;10.73;;;7.15;;
63350;SDS011;64988;51.058;17.040;2023-06-22T14:46:15;10.77;;;7.65;;
63350;SDS011;64988;51.058;17.040;2023-06-22T14:51:45;7.47;;;6.53;;
63350;SDS011;64988;51.058;17.040;2023-06-22T14:57:13;8.23;;;6.80;;
63350;SDS011;64988;51.058;17.040;2023-06-22T15:02:47;8.40;;;6.70;;
63350;SDS011;64988;51.058;17.040;2023-06-22T15:08:16;8.40;;;6.40;;
63350;SDS011;64988;51.058;17.040;2023-06-22T15:13:43;8.52;;;6.88;;
63350;SDS011;64988;51.058;17.040;2023-06-22T15:19:11;8.13;;;6.38;;
63350;SDS011;64988;51.058;17.040;2023-06-22T15:24:40;7.72;;;6.65;;
63350;SDS011;64988;51.058;17.040;2023-06-22T15:30:08;7.82;;;6.90;;
63350;SDS011;64988;51.058;17.040;2023-06-22T15:35:39;12.80;;;5.80;;
63350;SDS011;64988;51.058;17.040;2023-06-22T15:41:09;10.13;;;6.88;;
63350;SDS011;64988;51.058;17.040;2023-06-22T15:46:36;7.28;;;6.57;;
63350;SDS011;64988;51.058;17.040;2023-06-22T15:52:04;9.32;;;6.05;;
63350;SDS011;64988;51.058;17.040;2023-06-22T15:57:32;8.02;;;7.03;;
63350;SDS011;64988;51.058;17.040;2023-06-22T16:03:02;8.75;;;6.32;;
63350;SDS011;64988;51.058;17.040;2023-06-22T16:08:30;7.78;;;6.18;;
63350;SDS011;64988;51.058;17.040;2023-06-22T16:13:58;7.43;;;6.72;;
63350;SDS011;64988;51.058;17.040;2023-06-22T16:19:26;10.18;;;6.82;;
63350;SDS011;64988;51.058;17.040;2023-06-22T16:24:57;7.77;;;6.60;;
63350;SDS011;64988;51.058;17.040;2023-06-22T16:30:26;8.65;;;6.90;;
63350;SDS011;64988;51.058;17.040;2023-06-22T16:35:55;7.05;;;5.63;;
63350;SDS011;64988;51.058;17.040;2023-06-22T16:41:23;12.82;;;6.97;;
63350;SDS011;64988;51.058;17.040;2023-06-22T16:46:54;9.70;;;6.90;;
63350;SDS011;64988;51.058;17.040;2023-06-22T16:52:22;7.70;;;6.43;;
63350;SDS011;64988;51.058;17.040;2023-06-22T16:57:51;9.07;;;6.65;;
63350;SDS011;64988;51.058;17.040;2023-06-22T17:03:26;7.15;;;5.80;;
63350;SDS011;64988;51.058;17.040;2023-06-22T17:09:03;8.80;;;6.60;;
63350;SDS011;64988;51.058;17.040;2023-06-22T17:14:32;8.35;;;6.28;;
63350;SDS011;64988;51.058;17.040;2023-06-22T17:19:59;9.63;;;7.03;;
63350;SDS011;64988;51.058;17.040;2023-06-22T17:25:28;10.15;;;6.05;;
63350;SDS011;64988;51.058;17.040;2023-06-22T17:31:09;7.70;;;6.15;;
63350;SDS011;64988;51.058;17.040;2023-06-22T17:36:43;8.27;;;6.47;;
63350;SDS011;64988;51.058;17.040;2023-06-22T17:42:15;12.48;;;6.63;;
63350;SDS011;64988;51.058;17.040;2023-06-22T17:47:50;8.55;;;6.57;;
63350;SDS011;64988;51.058;17.040;2023-06-22T17:53:19;9.52;;;6.53;;
63350;SDS011;64988;51.058;17.040;2023-06-22T17:58:53;7.35;;;6.28;;
63350;SDS011;64988;51.058;17.040;2023-06-22T18:04:21;11.35;;;6.68;;
63350;SDS011;64988;51.058;17.040;2023-06-22T18:09:49;7.80;;;6.70;;
63350;SDS011;64988;51.058;17.040;2023-06-22T18:15:17;8.82;;;6.88;;
63350;SDS011;64988;51.058;17.040;2023-06-22T18:20:46;9.93;;;7.13;;
63350;SDS011;64988;51.058;17.040;2023-06-22T18:26:14;9.90;;;7.10;;
63350;SDS011;64988;51.058;17.040;2023-06-22T18:31:44;10.60;;;7.60;;
63350;SDS011;64988;51.058;17.040;2023-06-22T18:37:13;7.38;;;6.30;;
63350;SDS011;64988;51.058;17.040;2023-06-22T18:42:45;7.95;;;6.15;;
63350;SDS011;64988;51.058;17.040;2023-06-22T18:48:13;10.52;;;6.45;;
63350;SDS011;64988;51.058;17.040;2023-06-22T18:54:01;7.85;;;5.93;;
63350;SDS011;64988;51.058;17.040;2023-06-22T18:59:41;9.95;;;5.78;;
63350;SDS011;64988;51.058;17.040;2023-06-22T19:05:16;10.15;;;6.07;;
63350;SDS011;64988;51.058;17.040;2023-06-22T19:10:46;8.75;;;5.30;;
63350;SDS011;64988;51.058;17.040;2023-06-22T19:16:13;9.02;;;5.25;;
63350;SDS011;64988;51.058;17.040;2023-06-22T19:21:41;8.75;;;5.07;;
63350;SDS011;64988;51.058;17.040;2023-06-22T19:27:08;5.93;;;4.95;;
63350;SDS011;64988;51.058;17.040;2023-06-22T19:32:38;8.00;;;5.35;;
63350;SDS011;64988;51.058;17.040;2023-06-22T19:38:07;7.88;;;5.10;;
63350;SDS011;64988;51.058;17.040;2023-06-22T19:43:36;6.95;;;4.70;;
63350;SDS011;64988;51.058;17.040;2023-06-22T19:49:08;5.45;;;4.68;;
63350;SDS011;64988;51.058;17.040;2023-06-22T19:54:40;6.10;;;4.90;;
63350;SDS011;64988;51.058;17.040;2023-06-22T20:00:11;9.52;;;6.32;;
63350;SDS011;64988;51.058;17.040;2023-06-22T20:05:44;6.90;;;5.18;;
63350;SDS011;64988;51.058;17.040;2023-06-22T20:11:23;10.65;;;5.40;;
63350;SDS011;64988;51.058;17.040;2023-06-22T20:16:54;10.02;;;5.72;;
63350;SDS011;64988;51.058;17.040;2023-06-22T20:22:25;11.75;;;6.07;;
63350;SDS011;64988;51.058;17.040;2023-06-22T20:27:54;7.72;;;6.05;;
63350;SDS011;64988;51.058;17.040;2023-06-22T20:33:25;9.50;;;5.60;;
63350;SDS011;64988;51.058;17.040;2023-06-22T20:38:57;12.25;;;6.10;;
63350;SDS011;64988;51.058;17.040;2023-06-22T20:44:34;11.05;;;5.95;;
63350;SDS011;64988;51.058;17.040;2023-06-22T20:50:10;8.45;;;5.90;;
63350;SDS011;64988;51.058;17.040;2023-06-22T20:55:41;9.32;;;6.45;;
63350;SDS011;64988;51.058;17.040;2023-06-22T21:01:16;9.52;;;6.10;;
63350;SDS011;64988;51.058;17.040;2023-06-22T21:06:45;9.50;;;5.40;;
63350;SDS011;64988;51.058;17.040;2023-06-22T21:12:13;7.60;;;5.43;;
63350;SDS011;64988;51.058;17.040;2023-06-22T21:17:40;11.20;;;5.55;;
63350;SDS011;64988;51.058;17.040;2023-06-22T21:23:08;9.13;;;5.72;;
63350;SDS011;64988;51.058;17.040;2023-06-22T21:28:35;7.82;;;5.47;;
63350;SDS011;64988;51.058;17.040;2023-06-22T21:34:02;7.50;;;5.25;;
63350;SDS011;64988;51.058;17.040;2023-06-22T21:39:29;9.65;;;5.32;;
63350;SDS011;64988;51.058;17.040;2023-06-22T21:44:57;13.85;;;5.60;;
63350;SDS011;64988;51.058;17.040;2023-06-22T21:50:24;9.00;;;5.13;;
63350;SDS011;64988;51.058;17.040;2023-06-22T21:55:51;9.93;;;4.53;;
63350;SDS011;64988;51.058;17.040;2023-06-22T22:01:19;6.68;;;4.20;;
63350;SDS011;64988;51.058;17.040;2023-06-22T22:06:47;5.72;;;4.60;;
63350;SDS011;64988;51.058;17.040;2023-06-22T22:12:18;6.35;;;4.75;;
63350;SDS011;64988;51.058;17.040;2023-06-22T22:17:47;6.05;;;4.63;;
63350;SDS011;64988;51.058;17.040;2023-06-22T22:23:14;5.03;;;4.45;;
63350;SDS011;64988;51.058;17.040;2023-06-22T22:28:41;9.07;;;5.10;;
63350;SDS011;64988;51.058;17.040;2023-06-22T22:34:08;7.25;;;4.50;;
63350;SDS011;64988;51.058;17.040;2023-06-22T22:39:36;6.22;;;4.38;;
63350;SDS011;64988;51.058;17.040;2023-06-22T22:45:41;6.03;;;4.18;;
63350;SDS011;64988;51.058;17.040;2023-06-22T22:51:09;6.40;;;4.22;;
63350;SDS011;64988;51.058;17.040;2023-06-22T22:56:40;6.35;;;4.30;;
63350;SDS011;64988;51.058;17.040;2023-06-22T23:02:07;6.95;;;4.55;;
63350;SDS011;64988;51.058;17.040;2023-06-22T23:07:35;5.68;;;4.43;;
63350;SDS011;64988;51.058;17.040;2023-06-22T23:13:05;5.63;;;4.07;;
63350;SDS011;64988;51.058;17.040;2023-06-22T23:18:32;8.75;;;4.70;;
63350;SDS011;64988;51.058;17.040;2023-06-22T23:23:59;8.32;;;4.35;;
63350;SDS011;64988;51.058;17.040;2023-06-22T23:29:26;7.53;;;4.72;;
63350;SDS011;64988;51.058;17.040;2023-06-22T23:34:54;5.20;;;4.35;;
63350;SDS011;64988;51.058;17.040;2023-06-22T23:40:21;6.35;;;4.55;;
63350;SDS011;64988;51.058;17.040;2023-06-22T23:45:48;7.82;;;4.97;;
63350;SDS011;64988;51.058;17.040;2023-06-22T23:51:16;6.65;;;4.82;;
63350;SDS011;64988;51.058;17.040;2023-06-22T23:56:43;7.15;;;4.75;;
